createdAt,value
2022-11-29T00:02:34.731Z,3.38
2022-11-29T00:06:36.175Z,3.27
2022-11-29T00:10:38.625Z,3.36
2022-11-29T00:14:38.176Z,3.34
2022-11-29T00:18:39.684Z,3.35
2022-11-29T00:22:39.215Z,3.64
2022-11-29T00:26:38.918Z,3.58
2022-11-29T00:30:38.522Z,3.48
2022-11-29T00:34:40.297Z,3.68
2022-11-29T00:38:40.318Z,3.62
2022-11-29T00:42:39.847Z,3.62
2022-11-29T00:46:39.680Z,3.58
2022-11-29T00:50:41.372Z,3.48
2022-11-29T00:54:41.037Z,3.37
2022-11-29T00:58:43.043Z,3.34
2022-11-29T01:02:42.666Z,3.39
2022-11-29T01:06:44.378Z,3.48
2022-11-29T01:10:44.656Z,3.33
2022-11-29T01:14:43.483Z,3.38
2022-11-29T01:18:43.593Z,3.37
2022-11-29T01:22:45.009Z,3.02
2022-11-29T01:26:44.581Z,3.08
2022-11-29T01:30:46.182Z,3.08
2022-11-29T01:34:45.998Z,3.10
2022-11-29T01:38:47.924Z,2.94
2022-11-29T01:42:46.923Z,3.20
2022-11-29T01:46:48.505Z,3.23
2022-11-29T01:50:48.000Z,3.18
2022-11-29T01:54:52.859Z,3.18
2022-11-29T01:58:53.083Z,3.25
2022-11-29T02:02:57.450Z,3.01
2022-11-29T02:06:57.034Z,3.19
2022-11-29T02:11:26.967Z,3.18
2022-11-29T02:15:36.135Z,3.20
2022-11-29T02:19:56.937Z,3.03
2022-11-29T02:24:31.228Z,3.06
2022-11-29T02:29:09.463Z,3.32
2022-11-29T02:33:38.537Z,3.22
2022-11-29T02:38:01.498Z,3.46
2022-11-29T02:42:29.439Z,3.16
2022-11-29T02:46:46.270Z,3.26
2022-11-29T02:50:57.169Z,3.13
2022-11-29T02:55:06.372Z,3.37
2022-11-29T02:59:11.458Z,3.13
2022-11-29T03:03:19.431Z,3.34
2022-11-29T03:07:29.257Z,3.21
2022-11-29T03:11:36.430Z,2.95
2022-11-29T03:15:45.892Z,3.17
2022-11-29T03:20:01.636Z,3.01
2022-11-29T03:24:07.211Z,2.97
2022-11-29T03:28:16.369Z,2.89
2022-11-29T03:32:22.816Z,2.88
2022-11-29T03:36:31.531Z,2.79
2022-11-29T03:40:44.158Z,2.78
2022-11-29T03:44:53.046Z,2.83
2022-11-29T03:48:56.536Z,2.78
2022-11-29T03:52:58.717Z,2.62
2022-11-29T03:57:01.367Z,2.77
2022-11-29T04:01:31.275Z,2.67
2022-11-29T04:06:01.104Z,2.76
2022-11-29T04:10:18.257Z,2.67
2022-11-29T04:14:33.008Z,2.75
2022-11-29T04:19:14.017Z,2.79
2022-11-29T04:23:40.500Z,2.87
2022-11-29T04:27:54.045Z,3.05
2022-11-29T04:32:15.322Z,3.13
2022-11-29T04:36:40.410Z,2.89
2022-11-29T04:41:03.408Z,2.81
2022-11-29T04:45:37.934Z,2.69
2022-11-29T04:50:14.645Z,2.59
2022-11-29T04:54:25.272Z,2.70
2022-11-29T04:58:33.269Z,2.93
2022-11-29T05:02:37.553Z,2.96
2022-11-29T05:06:45.569Z,2.91
2022-11-29T05:10:55.415Z,2.93
2022-11-29T05:15:18.375Z,2.96
2022-11-29T05:19:57.699Z,2.93
2022-11-29T05:24:13.760Z,3.15
2022-11-29T05:28:21.253Z,3.13
2022-11-29T05:32:32.355Z,3.16
2022-11-29T05:36:41.837Z,3.20
2022-11-29T05:40:52.829Z,3.18
2022-11-29T05:44:58.720Z,2.99
2022-11-29T05:49:06.850Z,3.04
2022-11-29T05:53:19.721Z,2.81
2022-11-29T05:57:31.075Z,2.83
2022-11-29T06:01:36.881Z,2.97
2022-11-29T06:05:41.722Z,3.09
2022-11-29T06:09:49.636Z,3.11
2022-11-29T06:14:05.211Z,3.08
2022-11-29T06:18:28.275Z,2.97
2022-11-29T06:22:48.593Z,2.98
2022-11-29T06:27:17.433Z,3.03
2022-11-29T06:31:25.687Z,2.74
2022-11-29T06:35:45.501Z,2.99
2022-11-29T06:39:45.533Z,3.05
2022-11-29T06:43:45.805Z,3.04
2022-11-29T06:47:51.332Z,3.10
2022-11-29T06:52:07.675Z,3.06
2022-11-29T06:56:15.682Z,3.22
2022-11-29T07:00:21.311Z,3.10
2022-11-29T07:04:45.630Z,3.14
2022-11-29T07:08:47.207Z,3.20
2022-11-29T07:12:48.583Z,3.16
2022-11-29T07:16:59.905Z,3.12
2022-11-29T07:21:13.044Z,3.24
2022-11-29T07:25:26.653Z,3.20
2022-11-29T07:29:36.212Z,3.37
2022-11-29T07:33:46.266Z,3.33
2022-11-29T07:38:01.531Z,3.30
2022-11-29T07:42:10.657Z,3.25
2022-11-29T07:46:10.333Z,3.38
2022-11-29T07:50:10.955Z,3.14
2022-11-29T07:54:17.758Z,3.06
2022-11-29T07:58:19.337Z,3.05
2022-11-29T08:02:28.953Z,3.02
2022-11-29T08:06:32.014Z,3.10
2022-11-29T08:10:37.319Z,3.27
2022-11-29T08:14:36.781Z,3.30
2022-11-29T08:18:38.175Z,3.30
2022-11-29T08:22:37.553Z,3.34
2022-11-29T08:26:39.804Z,3.58
2022-11-29T08:30:40.100Z,3.48
2022-11-29T08:34:39.839Z,3.66
2022-11-29T08:38:40.002Z,3.71
2022-11-29T08:42:41.933Z,3.70
2022-11-29T08:46:58.071Z,3.89
2022-11-29T08:50:58.706Z,3.73
2022-11-29T08:55:02.998Z,3.66
2022-11-29T08:59:05.390Z,3.85
2022-11-29T09:03:22.286Z,4.07
2022-11-29T09:07:21.995Z,4.13
2022-11-29T09:11:24.092Z,4.20
2022-11-29T09:15:25.829Z,4.38
2022-11-29T09:19:25.378Z,4.24
2022-11-29T09:23:24.925Z,4.29
2022-11-29T09:27:24.409Z,4.33
2022-11-29T09:31:27.359Z,4.35
2022-11-29T09:35:26.972Z,4.26
2022-11-29T09:39:26.543Z,4.33
2022-11-29T09:43:28.942Z,4.34
2022-11-29T09:48:12.653Z,4.45
2022-11-29T09:52:24.014Z,4.31
2022-11-29T09:56:32.659Z,4.32
2022-11-29T10:00:34.568Z,4.31
2022-11-29T10:04:42.195Z,4.38
2022-11-29T10:08:47.694Z,4.25
2022-11-29T10:12:52.148Z,4.55
2022-11-29T10:16:58.318Z,4.53
2022-11-29T10:21:01.444Z,4.52
2022-11-29T10:25:04.396Z,4.41
2022-11-29T10:29:04.418Z,4.37
2022-11-29T10:33:04.342Z,4.50
2022-11-29T10:37:06.842Z,4.42
2022-11-29T10:41:10.679Z,4.58
2022-11-29T10:45:18.504Z,4.61
2022-11-29T10:49:21.432Z,4.61
2022-11-29T10:53:27.954Z,4.59
2022-11-29T10:57:27.802Z,4.75
2022-11-29T11:01:28.670Z,4.82
2022-11-29T11:05:29.061Z,4.75
2022-11-29T11:09:36.068Z,4.94
2022-11-29T11:13:37.262Z,4.98
2022-11-29T11:17:37.362Z,4.85
2022-11-29T11:21:40.955Z,4.99
2022-11-29T11:25:43.259Z,5.17
2022-11-29T11:29:46.050Z,5.06
2022-11-29T11:33:47.383Z,5.12
2022-11-29T11:37:58.413Z,5.12
2022-11-29T11:42:16.758Z,5.01
2022-11-29T11:46:18.099Z,5.00
2022-11-29T11:50:27.981Z,4.99
2022-11-29T11:54:28.436Z,5.04
2022-11-29T11:58:31.792Z,4.91
2022-11-29T12:02:40.297Z,5.12
2022-11-29T12:06:51.766Z,5.14
2022-11-29T12:10:55.660Z,5.01
2022-11-29T12:15:02.946Z,4.38
2022-11-29T12:19:09.165Z,4.78
2022-11-29T12:23:26.242Z,4.96
2022-11-29T12:27:25.788Z,4.89
2022-11-29T12:31:44.470Z,5.07
2022-11-29T12:36:00.980Z,5.11
2022-11-29T12:40:08.281Z,5.17
2022-11-29T12:44:22.469Z,5.14
2022-11-29T12:48:35.256Z,5.06
2022-11-29T12:52:43.677Z,4.93
2022-11-29T12:56:53.716Z,5.10
2022-11-29T13:01:05.328Z,4.95
2022-11-29T13:05:16.671Z,4.84
2022-11-29T13:09:47.219Z,4.78
2022-11-29T13:13:51.138Z,4.71
2022-11-29T13:18:01.637Z,4.83
2022-11-29T13:22:10.860Z,4.52
2022-11-29T13:26:13.497Z,4.87
2022-11-29T13:30:21.676Z,4.90
2022-11-29T13:34:26.689Z,4.90
2022-11-29T13:38:35.058Z,4.91
2022-11-29T13:42:44.895Z,4.97
2022-11-29T13:46:51.966Z,4.96
2022-11-29T13:50:51.863Z,4.98
2022-11-29T13:55:09.610Z,4.92
2022-11-29T13:59:16.971Z,4.85
2022-11-29T14:03:38.032Z,4.88
2022-11-29T14:08:42.521Z,4.99
2022-11-29T14:12:57.232Z,5.02
2022-11-29T14:17:01.739Z,5.05
2022-11-29T14:21:01.847Z,4.94
2022-11-29T14:25:50.518Z,4.91
2022-11-29T14:29:58.273Z,4.87
2022-11-29T14:34:07.902Z,4.84
2022-11-29T14:38:19.124Z,4.93
2022-11-29T14:42:21.248Z,4.98
2022-11-29T14:46:32.710Z,4.93
2022-11-29T14:50:36.772Z,4.97
2022-11-29T14:54:37.144Z,4.98
2022-11-29T14:58:37.092Z,5.00
2022-11-29T15:02:44.306Z,5.14
2022-11-29T15:06:50.141Z,5.00
2022-11-29T15:10:56.165Z,4.94
2022-11-29T15:15:09.956Z,4.85
2022-11-29T15:19:32.501Z,4.88
2022-11-29T15:23:43.479Z,4.78
2022-11-29T15:27:53.347Z,4.88
2022-11-29T15:31:58.714Z,4.80
2022-11-29T15:36:08.829Z,4.91
2022-11-29T15:40:17.143Z,5.00
2022-11-29T15:44:25.250Z,5.01
2022-11-29T15:48:27.091Z,4.89
2022-11-29T15:52:36.165Z,4.89
2022-11-29T15:56:41.154Z,4.83
2022-11-29T16:00:42.178Z,4.82
2022-11-29T16:04:47.055Z,4.83
2022-11-29T16:08:51.686Z,4.64
2022-11-29T16:12:57.433Z,4.76
2022-11-29T16:17:00.410Z,4.74
2022-11-29T16:21:05.595Z,4.87
2022-11-29T16:25:17.191Z,4.92
2022-11-29T16:29:24.555Z,4.99
2022-11-29T16:33:26.625Z,4.84
2022-11-29T16:37:29.218Z,4.86
2022-11-29T16:41:36.479Z,4.80
2022-11-29T16:45:38.108Z,4.80
2022-11-29T16:49:38.737Z,4.82
2022-11-29T16:53:41.956Z,4.80
2022-11-29T16:57:46.285Z,4.91
2022-11-29T17:01:47.533Z,4.68
2022-11-29T17:05:47.318Z,4.61
2022-11-29T17:09:46.596Z,4.66
2022-11-29T17:13:48.904Z,4.64
2022-11-29T17:17:51.695Z,4.72
2022-11-29T17:21:51.359Z,4.78
2022-11-29T17:25:58.591Z,4.81
2022-11-29T17:30:00.349Z,4.83
2022-11-29T17:34:01.473Z,4.65
2022-11-29T17:38:01.601Z,4.82
2022-11-29T17:42:01.483Z,4.89
2022-11-29T17:46:08.791Z,4.83
2022-11-29T17:50:10.707Z,4.85
2022-11-29T17:54:10.681Z,4.89
2022-11-29T17:58:10.756Z,4.90
2022-11-29T18:02:16.452Z,4.81
2022-11-29T18:06:17.679Z,4.92
2022-11-29T18:10:17.297Z,4.88
2022-11-29T18:14:17.466Z,4.81
2022-11-29T18:18:18.819Z,4.79
2022-11-29T18:22:19.529Z,4.66
2022-11-29T18:26:22.259Z,4.64
2022-11-29T18:30:22.148Z,4.68
2022-11-29T18:34:26.104Z,4.67
2022-11-29T18:38:25.313Z,4.69
2022-11-29T18:42:25.147Z,4.78
2022-11-29T18:46:25.652Z,4.74
2022-11-29T18:50:27.855Z,4.69
2022-11-29T18:54:28.793Z,4.61
2022-11-29T18:58:28.767Z,4.60
2022-11-29T19:02:30.033Z,4.59
2022-11-29T19:06:39.411Z,4.66
2022-11-29T19:10:40.326Z,4.75
2022-11-29T19:14:43.824Z,4.71
2022-11-29T19:18:47.136Z,4.69
2022-11-29T19:22:49.109Z,4.71
2022-11-29T19:26:50.235Z,4.76
2022-11-29T19:30:56.073Z,4.74
2022-11-29T19:34:56.390Z,4.70
2022-11-29T19:38:59.370Z,4.74
2022-11-29T19:42:59.693Z,4.62
2022-11-29T19:47:01.374Z,4.75
2022-11-29T19:51:02.069Z,4.76
2022-11-29T19:55:04.596Z,4.74
2022-11-29T19:59:04.407Z,4.71
2022-11-29T20:03:04.452Z,4.72
2022-11-29T20:07:04.482Z,4.73
2022-11-29T20:11:11.366Z,4.67
2022-11-29T20:15:11.601Z,4.66
2022-11-29T20:19:13.176Z,4.53
2022-11-29T20:23:13.737Z,4.52
2022-11-29T20:27:15.244Z,4.48
2022-11-29T20:31:17.752Z,4.48
2022-11-29T20:35:18.604Z,4.47
2022-11-29T20:39:33.010Z,4.43
2022-11-29T20:43:46.318Z,4.36
2022-11-29T20:47:55.232Z,4.35
2022-11-29T20:52:01.103Z,4.39
2022-11-29T20:56:01.208Z,4.37
2022-11-29T21:00:03.308Z,4.40
2022-11-29T21:04:03.146Z,4.34
2022-11-29T21:08:03.805Z,4.40
2022-11-29T21:12:03.834Z,4.43
2022-11-29T21:16:06.635Z,4.38
2022-11-29T21:20:07.857Z,4.37
2022-11-29T21:24:16.304Z,4.37
2022-11-29T21:28:18.380Z,4.40
2022-11-29T21:32:24.549Z,4.17
2022-11-29T21:36:24.782Z,4.38
2022-11-29T21:40:24.384Z,4.29
2022-11-29T21:44:23.624Z,4.28
2022-11-29T21:48:38.047Z,4.41
2022-11-29T21:52:37.691Z,4.15
2022-11-29T21:56:37.363Z,4.31
2022-11-29T22:00:37.724Z,4.36
2022-11-29T22:04:39.621Z,4.40
2022-11-29T22:08:40.899Z,4.37
2022-11-29T22:12:49.319Z,4.15
2022-11-29T22:16:53.672Z,4.33
2022-11-29T22:20:55.541Z,4.29
2022-11-29T22:24:55.113Z,4.37
2022-11-29T22:28:54.364Z,4.27
2022-11-29T22:32:54.084Z,4.34
2022-11-29T22:36:55.823Z,4.28
2022-11-29T22:40:55.473Z,4.33
2022-11-29T22:44:54.866Z,4.12
2022-11-29T22:48:56.196Z,4.38
2022-11-29T22:52:57.924Z,4.40
2022-11-29T22:56:57.534Z,4.42
2022-11-29T23:01:03.421Z,4.31
2022-11-29T23:05:03.409Z,4.40
2022-11-29T23:09:10.369Z,4.27
2022-11-29T23:13:09.990Z,4.43
2022-11-29T23:17:09.298Z,4.43
2022-11-29T23:21:10.395Z,4.37
2022-11-29T23:25:12.363Z,4.36
2022-11-29T23:29:14.150Z,4.30
2022-11-29T23:33:13.719Z,4.44
2022-11-29T23:37:13.425Z,4.33
2022-11-29T23:41:15.624Z,4.28
2022-11-29T23:45:15.327Z,4.41
2022-11-29T23:49:14.946Z,4.41
2022-11-29T23:53:14.651Z,4.38
2022-11-29T23:57:16.347Z,4.44
